createdAt,value
2018-05-15T00:02:00.539Z,47.29
2018-05-15T00:04:27.926Z,47.90
2018-05-15T00:06:55.322Z,48.24
2018-05-15T00:09:22.833Z,48.24
2018-05-15T00:11:50.290Z,48.06
2018-05-15T00:14:17.734Z,48.34
2018-05-15T00:16:45.189Z,48.75
2018-05-15T00:19:12.572Z,48.85
2018-05-15T00:21:39.976Z,48.78
2018-05-15T00:24:07.391Z,48.83
2018-05-15T00:26:34.823Z,48.80
2018-05-15T00:29:02.265Z,48.95
2018-05-15T00:31:29.676Z,49.50
2018-05-15T00:33:57.123Z,49.68
2018-05-15T00:36:24.526Z,49.56
2018-05-15T00:38:51.984Z,49.66
2018-05-15T00:41:19.441Z,49.78
2018-05-15T00:43:46.839Z,49.85
2018-05-15T00:46:14.281Z,50.37
2018-05-15T00:48:41.663Z,50.38
2018-05-15T00:51:09.088Z,51.23
2018-05-15T00:53:36.490Z,51.79
2018-05-15T00:56:03.991Z,52.49
2018-05-15T00:58:31.372Z,52.39
2018-05-15T01:00:58.777Z,52.49
2018-05-15T01:03:26.968Z,52.12
2018-05-15T01:05:54.457Z,52.53
2018-05-15T01:08:21.857Z,52.95
2018-05-15T01:10:49.252Z,53.66
2018-05-15T01:13:16.647Z,54.00
2018-05-15T01:15:44.154Z,54.15
2018-05-15T01:18:11.573Z,54.25
2018-05-15T01:20:38.983Z,55.01
2018-05-15T01:23:06.382Z,55.28
2018-05-15T01:25:33.783Z,55.50
2018-05-15T01:28:01.233Z,56.11
2018-05-15T01:30:28.705Z,56.94
2018-05-15T01:32:56.106Z,56.67
2018-05-15T01:35:23.595Z,56.41
2018-05-15T01:37:51.043Z,56.54
2018-05-15T01:40:18.429Z,56.15
2018-05-15T01:42:45.871Z,55.87
2018-05-15T01:45:13.269Z,56.36
2018-05-15T01:47:40.662Z,56.09
2018-05-15T01:50:08.137Z,56.44
2018-05-15T01:52:35.537Z,56.55
2018-05-15T01:55:02.934Z,56.28
2018-05-15T01:57:30.341Z,57.24
2018-05-15T01:59:57.747Z,57.60
2018-05-15T02:02:25.233Z,57.77
2018-05-15T02:04:52.672Z,58.63
2018-05-15T02:07:20.124Z,59.03
2018-05-15T02:09:47.590Z,58.81
2018-05-15T02:12:15.048Z,59.04
2018-05-15T02:14:42.525Z,59.07
2018-05-15T02:17:09.961Z,59.45
2018-05-15T02:19:37.361Z,59.67
2018-05-15T02:22:04.769Z,59.78
2018-05-15T02:24:32.232Z,60.20
2018-05-15T02:26:59.702Z,59.58
2018-05-15T02:29:27.138Z,59.65
2018-05-15T02:31:54.537Z,59.72
2018-05-15T02:34:21.941Z,60.13
2018-05-15T02:36:49.410Z,60.58
2018-05-15T02:39:16.866Z,60.69
2018-05-15T02:41:44.340Z,61.43
2018-05-15T02:44:11.738Z,62.21
2018-05-15T02:46:39.146Z,62.39
2018-05-15T02:49:06.532Z,62.68
2018-05-15T02:51:33.949Z,63.19
2018-05-15T02:54:01.337Z,63.33
2018-05-15T02:56:28.763Z,63.80
2018-05-15T02:58:56.161Z,64.01
2018-05-15T03:01:23.567Z,63.95
2018-05-15T03:03:50.957Z,63.56
2018-05-15T03:06:18.358Z,63.85
2018-05-15T03:08:45.838Z,64.90
2018-05-15T03:11:13.233Z,64.75
2018-05-15T03:13:40.627Z,64.32
2018-05-15T03:16:08.021Z,64.63
2018-05-15T03:18:35.418Z,64.15
2018-05-15T03:21:02.865Z,64.57
2018-05-15T03:23:30.276Z,65.09
2018-05-15T03:25:57.741Z,64.87
2018-05-15T03:28:25.200Z,65.53
2018-05-15T03:30:52.597Z,66.89
2018-05-15T03:33:19.997Z,67.97
2018-05-15T03:35:47.409Z,68.57
2018-05-15T03:38:14.837Z,68.90
2018-05-15T03:40:42.292Z,68.35
2018-05-15T03:43:09.679Z,67.86
2018-05-15T03:45:37.094Z,68.37
2018-05-15T03:48:04.549Z,68.90
2018-05-15T03:50:31.945Z,69.09
2018-05-15T03:52:59.370Z,68.82
2018-05-15T03:55:26.858Z,68.09
2018-05-15T03:57:54.261Z,68.51
2018-05-15T04:00:33.557Z,67.69
2018-05-15T04:03:12.730Z,67.81
2018-05-15T04:05:51.889Z,68.32
2018-05-15T04:08:19.354Z,68.35
2018-05-15T04:10:46.878Z,68.18
2018-05-15T04:13:14.233Z,68.00
2018-05-15T04:15:41.650Z,68.36
2018-05-15T04:18:09.860Z,67.98
2018-05-15T04:20:37.265Z,67.95
2018-05-15T04:23:04.672Z,68.06
2018-05-15T04:25:32.073Z,67.17
2018-05-15T04:27:59.513Z,66.94
2018-05-15T04:30:26.889Z,66.46
2018-05-15T04:32:54.310Z,66.54
2018-05-15T04:35:21.859Z,66.27
2018-05-15T04:37:49.239Z,66.31
2018-05-15T04:40:16.635Z,66.94
2018-05-15T04:42:44.124Z,66.64
2018-05-15T04:45:11.553Z,66.31
2018-05-15T04:47:38.960Z,65.39
2018-05-15T04:50:06.440Z,65.47
2018-05-15T04:52:33.838Z,65.89
2018-05-15T04:55:01.235Z,65.59
2018-05-15T04:57:28.643Z,64.84
2018-05-15T04:59:56.033Z,64.12
2018-05-15T05:02:23.481Z,63.75
2018-05-15T05:04:50.891Z,64.32
2018-05-15T05:07:18.277Z,64.72
2018-05-15T05:09:45.717Z,64.48
2018-05-15T05:12:13.113Z,64.90
2018-05-15T05:14:40.510Z,64.36
2018-05-15T05:17:07.902Z,63.41
2018-05-15T05:19:35.301Z,59.84
2018-05-15T05:22:02.813Z,55.10
2018-05-15T05:24:30.232Z,51.91
2018-05-15T05:26:57.722Z,49.11
2018-05-15T05:29:25.136Z,46.84
2018-05-15T05:31:52.522Z,44.33
2018-05-15T05:34:19.984Z,42.75
2018-05-15T05:36:47.369Z,41.19
2018-05-15T05:39:14.818Z,39.08
2018-05-15T05:41:42.213Z,37.44
2018-05-15T05:44:09.727Z,36.97
2018-05-15T05:46:37.104Z,35.39
2018-05-15T05:49:04.516Z,33.55
2018-05-15T05:51:31.980Z,32.92
2018-05-15T05:53:59.389Z,31.59
2018-05-15T05:56:26.773Z,31.29
2018-05-15T05:58:54.197Z,30.26
2018-05-15T06:01:21.606Z,29.06
2018-05-15T06:03:49.009Z,27.65
2018-05-15T06:06:16.520Z,28.17
2018-05-15T06:08:43.916Z,27.69
2018-05-15T06:11:11.417Z,28.89
2018-05-15T06:13:38.825Z,28.73
2018-05-15T06:16:06.227Z,28.55
2018-05-15T06:18:33.642Z,29.40
2018-05-15T06:21:01.113Z,30.04
2018-05-15T06:23:28.482Z,31.21
2018-05-15T06:25:55.873Z,31.44
2018-05-15T06:28:23.281Z,31.55
2018-05-15T06:30:50.729Z,28.87
2018-05-15T06:33:18.129Z,29.40
2018-05-15T06:35:45.531Z,29.83
2018-05-15T06:38:12.931Z,29.12
2018-05-15T06:40:40.455Z,27.02
2018-05-15T06:43:07.858Z,26.29
2018-05-15T06:45:35.250Z,25.13
2018-05-15T06:48:02.713Z,24.08
2018-05-15T06:50:30.135Z,23.00
2018-05-15T06:52:57.618Z,23.24
2018-05-15T06:55:25.026Z,23.98
2018-05-15T06:57:52.429Z,24.15
2018-05-15T07:00:19.890Z,24.15
2018-05-15T07:02:47.277Z,23.58
2018-05-15T07:05:14.685Z,22.35
2018-05-15T07:07:42.119Z,22.29
2018-05-15T07:10:09.557Z,22.74
2018-05-15T07:12:37.026Z,23.24
2018-05-15T07:15:04.481Z,23.04
2018-05-15T07:17:31.869Z,22.67
2018-05-15T07:19:59.280Z,23.29
2018-05-15T07:22:26.694Z,22.75
2018-05-15T07:24:54.100Z,23.09
2018-05-15T07:27:21.505Z,21.45
2018-05-15T07:29:48.970Z,20.76
2018-05-15T07:32:16.395Z,20.09
2018-05-15T07:34:43.905Z,19.39
2018-05-15T07:37:11.367Z,19.51
2018-05-15T07:39:38.815Z,19.26
2018-05-15T07:42:06.210Z,19.35
2018-05-15T07:44:33.629Z,19.34
2018-05-15T07:47:01.042Z,20.40
2018-05-15T07:49:28.535Z,20.09
2018-05-15T07:51:55.944Z,20.33
2018-05-15T07:54:23.453Z,21.97
2018-05-15T07:56:50.926Z,23.47
2018-05-15T07:59:18.260Z,24.30
2018-05-15T08:01:45.705Z,26.02
2018-05-15T08:04:13.177Z,25.35
2018-05-15T08:06:40.618Z,24.23
2018-05-15T08:09:08.027Z,24.03
2018-05-15T08:11:35.513Z,23.75
2018-05-15T08:14:02.913Z,23.93
2018-05-15T08:16:30.401Z,25.29
2018-05-15T08:18:57.852Z,26.36
2018-05-15T08:21:25.253Z,25.42
2018-05-15T08:23:52.651Z,25.74
2018-05-15T08:26:20.032Z,25.45
2018-05-15T08:28:47.457Z,26.07
2018-05-15T08:31:14.850Z,24.79
2018-05-15T08:33:42.326Z,24.25
2018-05-15T08:36:09.745Z,25.27
2018-05-15T08:38:37.262Z,24.68
2018-05-15T08:41:04.658Z,24.30
2018-05-15T08:43:32.079Z,25.97
2018-05-15T08:45:59.525Z,27.43
2018-05-15T08:48:26.926Z,26.91
2018-05-15T08:50:54.360Z,27.82
2018-05-15T08:53:21.750Z,28.21
2018-05-15T08:55:49.177Z,28.53
2018-05-15T08:58:16.588Z,28.99
2018-05-15T09:00:43.999Z,27.83
2018-05-15T09:03:11.381Z,28.26
2018-05-15T09:05:38.786Z,28.09
2018-05-15T09:08:06.228Z,28.05
2018-05-15T09:10:33.887Z,27.84
2018-05-15T09:13:01.353Z,27.85
2018-05-15T09:15:28.750Z,26.79
2018-05-15T09:17:56.240Z,28.07
2018-05-15T09:20:23.638Z,27.81
2018-05-15T09:22:51.053Z,28.67
2018-05-15T09:25:19.494Z,28.06
2018-05-15T09:27:46.887Z,27.92
2018-05-15T09:30:14.373Z,28.22
2018-05-15T09:32:41.813Z,28.36
2018-05-15T09:35:09.215Z,28.74
2018-05-15T09:37:37.557Z,27.77
2018-05-15T09:40:04.961Z,28.78
2018-05-15T09:42:32.461Z,28.80
2018-05-15T09:44:59.923Z,29.83
2018-05-15T09:47:27.315Z,28.40
2018-05-15T09:49:54.709Z,28.18
2018-05-15T09:52:22.143Z,28.37
2018-05-15T09:54:49.521Z,28.04
2018-05-15T09:57:16.940Z,30.91
2018-05-15T09:59:44.373Z,28.61
2018-05-15T10:02:11.789Z,28.72
2018-05-15T10:04:39.280Z,26.40
2018-05-15T10:07:06.741Z,26.07
2018-05-15T10:09:34.231Z,27.91
2018-05-15T10:12:01.708Z,27.51
2018-05-15T10:14:29.125Z,26.22
2018-05-15T10:16:56.505Z,25.21
2018-05-15T10:19:23.905Z,25.55
2018-05-15T10:21:51.288Z,28.61
2018-05-15T10:24:18.781Z,26.31
2018-05-15T10:26:46.197Z,25.74
2018-05-15T10:29:13.625Z,27.55
2018-05-15T10:31:41.021Z,26.73
2018-05-15T10:34:08.409Z,26.91
2018-05-15T10:36:35.926Z,24.35
2018-05-15T10:39:03.315Z,23.96
2018-05-15T10:41:30.706Z,24.47
2018-05-15T10:43:58.152Z,24.76
2018-05-15T10:46:25.535Z,25.63
2018-05-15T10:48:52.981Z,25.57
2018-05-15T10:51:20.552Z,24.40
2018-05-15T10:53:47.952Z,24.76
2018-05-15T10:56:15.351Z,24.97
2018-05-15T10:58:42.800Z,25.66
2018-05-15T11:01:10.278Z,27.15
2018-05-15T11:03:37.717Z,26.22
2018-05-15T11:06:05.205Z,25.85
2018-05-15T11:08:32.531Z,26.37
2018-05-15T11:10:59.924Z,26.70
2018-05-15T11:13:27.333Z,26.49
2018-05-15T11:15:54.729Z,25.96
2018-05-15T11:18:47.882Z,25.80
2018-05-15T11:21:27.193Z,26.43
2018-05-15T11:27:01.358Z,25.83
2018-05-15T11:29:28.809Z,25.92
2018-05-15T11:31:56.209Z,27.89
2018-05-15T11:34:23.622Z,25.32
2018-05-15T11:36:51.013Z,27.32
2018-05-15T11:39:18.424Z,26.16
2018-05-15T11:41:45.850Z,24.50
2018-05-15T11:44:13.257Z,26.09
2018-05-15T11:46:40.700Z,25.06
2018-05-15T11:49:08.799Z,24.87
2018-05-15T11:51:36.534Z,25.60
2018-05-15T11:54:03.129Z,26.67
2018-05-15T11:56:30.547Z,26.43
2018-05-15T11:58:57.933Z,26.81
2018-05-15T12:01:25.378Z,25.95
2018-05-15T12:03:53.014Z,25.86
2018-05-15T12:06:20.306Z,26.16
2018-05-15T12:08:47.711Z,25.28
2018-05-15T12:11:15.097Z,25.08
2018-05-15T12:13:42.497Z,25.70
2018-05-15T12:16:09.940Z,26.42
2018-05-15T12:18:37.385Z,27.58
2018-05-15T12:21:04.828Z,26.79
2018-05-15T12:23:32.217Z,26.90
2018-05-15T12:25:59.637Z,26.55
2018-05-15T12:28:27.070Z,26.39
2018-05-15T12:30:54.499Z,26.37
2018-05-15T12:33:22.156Z,27.05
2018-05-15T12:35:49.649Z,27.95
2018-05-15T12:40:57.144Z,28.24
2018-05-15T12:43:24.542Z,26.29
2018-05-15T12:45:52.025Z,27.13
2018-05-15T12:48:19.449Z,27.17
2018-05-15T12:50:46.836Z,26.18
2018-05-15T12:53:14.305Z,26.36
2018-05-15T12:55:41.705Z,26.68
2018-05-15T12:58:09.095Z,26.34
2018-05-15T13:00:36.523Z,27.15
2018-05-15T13:03:03.907Z,27.30
2018-05-15T13:05:31.341Z,26.92
2018-05-15T13:07:58.757Z,27.93
2018-05-15T13:10:26.168Z,28.68
2018-05-15T13:12:53.597Z,28.11
2018-05-15T13:15:21.106Z,27.83
2018-05-15T13:17:48.498Z,27.88
2018-05-15T13:20:15.897Z,27.42
2018-05-15T13:22:43.385Z,26.75
2018-05-15T13:25:10.880Z,25.22
2018-05-15T13:27:38.313Z,26.19
2018-05-15T13:30:05.736Z,27.58
2018-05-15T13:32:33.214Z,27.58
2018-05-15T13:35:00.678Z,28.53
2018-05-15T13:37:28.069Z,27.72
2018-05-15T13:39:55.468Z,28.34
2018-05-15T13:42:22.881Z,28.77
2018-05-15T13:44:50.294Z,28.85
2018-05-15T13:47:17.764Z,28.85
2018-05-15T13:49:45.235Z,28.66
2018-05-15T13:52:12.638Z,29.49
2018-05-15T13:54:40.031Z,28.39
2018-05-15T13:57:07.448Z,28.08
2018-05-15T13:59:34.964Z,28.89
2018-05-15T14:02:02.395Z,26.90
2018-05-15T14:04:30.725Z,27.04
2018-05-15T14:06:58.226Z,26.22
2018-05-15T14:09:25.703Z,26.19
2018-05-15T14:11:53.103Z,27.17
2018-05-15T14:14:20.614Z,25.72
2018-05-15T14:16:48.010Z,26.09
2018-05-15T14:19:15.498Z,26.69
2018-05-15T14:21:42.802Z,26.59
2018-05-15T14:24:10.210Z,27.24
2018-05-15T14:26:37.633Z,27.79
2018-05-15T14:29:05.030Z,27.29
2018-05-15T14:31:32.499Z,27.65
2018-05-15T14:33:59.949Z,26.40
2018-05-15T14:36:27.409Z,26.14
2018-05-15T14:38:54.798Z,26.83
2018-05-15T14:41:34.101Z,27.11
2018-05-15T14:44:01.497Z,27.62
2018-05-15T14:46:28.899Z,27.44
2018-05-15T14:48:56.293Z,26.82
2018-05-15T14:51:30.590Z,26.36
2018-05-15T14:53:58.065Z,27.30
2018-05-15T14:56:25.500Z,27.42
2018-05-15T14:58:52.964Z,27.57
2018-05-15T15:01:20.426Z,27.38
2018-05-15T15:03:47.825Z,27.12
2018-05-15T15:06:15.232Z,26.88
2018-05-15T15:08:42.679Z,27.26
2018-05-15T15:11:10.054Z,27.81
2018-05-15T15:13:37.458Z,28.81
2018-05-15T15:16:04.850Z,28.91
2018-05-15T15:18:32.248Z,28.26
2018-05-15T15:20:59.645Z,28.84
2018-05-15T15:23:27.053Z,29.25
2018-05-15T15:25:54.550Z,29.08
2018-05-15T15:28:21.993Z,29.10
2018-05-15T15:30:49.469Z,29.26
2018-05-15T15:33:16.883Z,29.11
2018-05-15T15:35:44.286Z,28.63
2018-05-15T15:38:11.685Z,28.87
2018-05-15T15:40:39.094Z,28.67
2018-05-15T15:43:06.561Z,27.52
2018-05-15T15:45:34.929Z,27.32
2018-05-15T15:48:02.322Z,28.37
2018-05-15T15:50:29.817Z,28.17
2018-05-15T15:52:57.248Z,29.11
2018-05-15T15:55:24.645Z,29.23
2018-05-15T15:57:52.063Z,29.52
2018-05-15T16:00:19.550Z,29.90
2018-05-15T16:02:46.989Z,29.26
2018-05-15T16:05:14.377Z,30.51
2018-05-15T16:07:41.769Z,30.70
2018-05-15T16:10:09.364Z,31.09
2018-05-15T16:12:36.625Z,30.50
2018-05-15T16:15:04.026Z,30.20
2018-05-15T16:17:31.517Z,29.87
2018-05-15T16:19:58.913Z,29.73
2018-05-15T16:22:26.319Z,30.05
2018-05-15T16:24:53.723Z,30.38
2018-05-15T16:27:21.114Z,30.42
2018-05-15T16:29:48.541Z,30.86
2018-05-15T16:32:15.947Z,30.94
2018-05-15T16:34:43.397Z,31.13
2018-05-15T16:37:10.781Z,31.26
2018-05-15T16:39:38.293Z,31.76
2018-05-15T16:42:05.689Z,31.54
2018-05-15T16:44:33.637Z,31.25
2018-05-15T16:47:01.107Z,31.74
2018-05-15T16:49:28.544Z,32.02
2018-05-15T16:51:55.937Z,32.50
2018-05-15T16:54:23.466Z,32.45
2018-05-15T16:56:50.877Z,32.26
2018-05-15T16:59:18.363Z,32.77
2018-05-15T17:01:46.629Z,32.95
2018-05-15T17:04:14.025Z,33.06
2018-05-15T17:06:41.467Z,33.15
2018-05-15T17:09:08.853Z,32.90
2018-05-15T17:11:36.683Z,33.00
2018-05-15T17:14:04.109Z,33.08
2018-05-15T17:16:31.504Z,32.78
2018-05-15T17:18:58.957Z,32.69
2018-05-15T17:21:26.449Z,32.70
2018-05-15T17:23:53.905Z,31.58
2018-05-15T17:26:21.367Z,30.61
2018-05-15T17:28:48.765Z,31.02
2018-05-15T17:31:16.220Z,31.44
2018-05-15T17:33:43.566Z,31.43
2018-05-15T17:36:10.966Z,31.33
2018-05-15T17:38:38.377Z,31.41
2018-05-15T17:41:05.789Z,31.53
2018-05-15T17:43:33.197Z,30.76
2018-05-15T17:46:00.587Z,30.98
2018-05-15T17:48:28.052Z,31.49
2018-05-15T17:50:55.433Z,31.59
2018-05-15T17:53:22.842Z,31.97
2018-05-15T17:55:50.301Z,32.30
2018-05-15T17:58:17.714Z,32.55
2018-05-15T18:00:45.222Z,32.85
2018-05-15T18:03:12.621Z,33.30
2018-05-15T18:05:40.481Z,33.35
2018-05-15T18:08:07.898Z,33.86
2018-05-15T18:10:35.309Z,33.92
2018-05-15T18:13:02.826Z,34.08
2018-05-15T18:15:30.218Z,34.79
2018-05-15T18:17:57.725Z,35.05
2018-05-15T18:20:25.165Z,35.52
2018-05-15T18:22:52.661Z,35.74
2018-05-15T18:25:20.049Z,35.98
2018-05-15T18:27:47.437Z,35.82
2018-05-15T18:30:14.850Z,36.04
2018-05-15T18:32:42.281Z,35.94
2018-05-15T18:35:09.663Z,36.10
2018-05-15T18:37:37.049Z,35.90
2018-05-15T18:40:04.465Z,35.91
2018-05-15T18:42:32.015Z,36.26
2018-05-15T18:44:59.455Z,36.31
2018-05-15T18:47:26.892Z,35.52
2018-05-15T18:49:54.294Z,35.57
2018-05-15T18:52:21.762Z,35.87
2018-05-15T18:54:49.173Z,35.99
2018-05-15T18:57:16.647Z,35.72
2018-05-15T18:59:44.092Z,35.85
2018-05-15T19:02:11.483Z,36.02
2018-05-15T19:04:38.965Z,36.21
2018-05-15T19:07:06.374Z,36.68
2018-05-15T19:09:33.773Z,36.50
2018-05-15T19:12:01.157Z,36.65
2018-05-15T19:14:28.560Z,36.81
2018-05-15T19:16:56.028Z,36.86
2018-05-15T19:19:23.521Z,36.93
2018-05-15T19:21:50.847Z,36.85
2018-05-15T19:24:18.245Z,37.20
2018-05-15T19:26:45.691Z,37.14
2018-05-15T19:29:13.053Z,37.21
2018-05-15T19:31:40.449Z,37.45
2018-05-15T19:34:13.649Z,37.30
2018-05-15T19:36:46.505Z,37.31
2018-05-15T19:39:13.907Z,37.15
2018-05-15T19:41:41.361Z,37.27
2018-05-15T19:44:08.780Z,37.42
2018-05-15T19:46:36.183Z,38.53
2018-05-15T19:49:03.570Z,38.63
2018-05-15T19:51:30.974Z,38.58
2018-05-15T19:53:58.442Z,38.64
2018-05-15T19:56:25.858Z,39.42
2018-05-15T19:58:54.090Z,39.72
2018-05-15T20:01:21.529Z,39.86
2018-05-15T20:03:48.985Z,40.04
2018-05-15T20:06:16.440Z,40.18
2018-05-15T20:08:43.833Z,39.95
2018-05-15T20:11:11.257Z,39.76
2018-05-15T20:13:38.712Z,40.84
2018-05-15T20:16:06.228Z,42.78
2018-05-15T20:18:33.641Z,43.86
2018-05-15T20:21:01.077Z,45.41
2018-05-15T20:23:28.469Z,47.33
2018-05-15T20:25:55.884Z,46.53
2018-05-15T20:28:23.281Z,47.66
2018-05-15T20:30:50.684Z,47.45
2018-05-15T20:33:18.100Z,47.67
2018-05-15T20:35:45.517Z,47.80
2018-05-15T20:38:12.910Z,47.85
2018-05-15T20:40:40.313Z,48.70
2018-05-15T20:43:07.785Z,49.86
2018-05-15T20:45:35.200Z,50.30
2018-05-15T20:48:02.610Z,51.48
2018-05-15T20:50:30.033Z,52.93
2018-05-15T20:52:57.513Z,53.19
2018-05-15T20:55:24.969Z,54.17
2018-05-15T20:57:52.371Z,54.94
2018-05-15T21:00:19.777Z,55.24
2018-05-15T21:02:48.061Z,56.79
2018-05-15T21:05:15.483Z,57.52
2018-05-15T21:07:42.886Z,57.69
2018-05-15T21:10:10.325Z,58.81
2018-05-15T21:12:37.898Z,60.27
2018-05-15T21:15:05.340Z,61.53
2018-05-15T21:17:32.700Z,62.78
2018-05-15T21:20:00.111Z,64.10
2018-05-15T21:22:27.509Z,64.87
2018-05-15T21:24:55.003Z,65.86
2018-05-15T21:27:22.424Z,66.45
2018-05-15T21:29:49.838Z,66.83
2018-05-15T21:32:17.228Z,67.18
2018-05-15T21:34:44.625Z,67.11
2018-05-15T21:37:12.039Z,67.93
2018-05-15T21:39:39.444Z,68.28
2018-05-15T21:42:06.845Z,68.22
2018-05-15T21:44:34.269Z,68.90
2018-05-15T21:47:01.674Z,67.75
2018-05-15T21:49:29.133Z,68.15
2018-05-15T21:51:56.516Z,68.51
2018-05-15T21:54:23.920Z,68.47
2018-05-15T21:56:51.314Z,68.60
2018-05-15T21:59:18.707Z,67.49
2018-05-15T22:01:46.113Z,67.94
2018-05-15T22:04:13.505Z,67.38
2018-05-15T22:06:40.905Z,67.60
2018-05-15T22:09:08.302Z,67.83
2018-05-15T22:11:47.430Z,67.86
2018-05-15T22:14:26.768Z,68.24
2018-05-15T22:17:06.065Z,66.54
2018-05-15T22:19:45.429Z,66.39
2018-05-15T22:22:15.048Z,65.74
2018-05-15T22:24:42.481Z,65.10
2018-05-15T22:27:09.889Z,64.46
2018-05-15T22:29:37.278Z,64.53
2018-05-15T22:32:04.768Z,65.62
2018-05-15T22:34:32.169Z,66.05
2018-05-15T22:36:59.677Z,66.05
2018-05-15T22:39:27.073Z,65.23
2018-05-15T22:41:54.492Z,66.43
2018-05-15T22:44:21.904Z,67.02
2018-05-15T22:46:49.301Z,67.11
2018-05-15T22:49:16.702Z,66.25
2018-05-15T22:51:44.101Z,65.90
2018-05-15T22:54:11.515Z,66.21
2018-05-15T22:56:38.913Z,65.73
2018-05-15T22:59:06.313Z,65.68
2018-05-15T23:01:33.773Z,66.24
2018-05-15T23:04:01.171Z,66.32
2018-05-15T23:06:28.621Z,66.26
2018-05-15T23:08:56.043Z,66.63
2018-05-15T23:11:23.441Z,67.00
2018-05-15T23:13:50.872Z,67.64
2018-05-15T23:16:18.295Z,67.37
2018-05-15T23:18:45.698Z,69.04
2018-05-15T23:21:13.122Z,70.04
2018-05-15T23:23:40.577Z,70.72
2018-05-15T23:26:07.980Z,69.99
2018-05-15T23:28:35.469Z,70.38
2018-05-15T23:31:02.892Z,69.39
2018-05-15T23:33:30.401Z,69.58
2018-05-15T23:35:57.817Z,69.58
2018-05-15T23:38:25.213Z,69.98
2018-05-15T23:40:52.644Z,70.37
2018-05-15T23:43:20.121Z,70.10
2018-05-15T23:45:47.567Z,69.62
2018-05-15T23:48:15.014Z,69.51
2018-05-15T23:50:42.413Z,69.31
2018-05-15T23:53:09.843Z,68.78
2018-05-15T23:55:37.285Z,68.90
2018-05-15T23:58:04.741Z,68.86
